sensor_id;sensor_type;location;lat;lon;timestamp;pressure;altitude;pressure_sealevel;temperature
75431;BMP280;64127;51.488;5.462;2022-12-04T00:00:12;101565.59;;;4.92
75431;BMP280;64127;51.488;5.462;2022-12-04T00:02:44;101564.69;;;4.91
75431;BMP280;64127;51.488;5.462;2022-12-04T00:05:16;101546.97;;;4.86
75431;BMP280;64127;51.488;5.462;2022-12-04T00:07:49;101552.72;;;4.93
75431;BMP280;64127;51.488;5.462;2022-12-04T00:10:21;101544.84;;;4.92
75431;BMP280;64127;51.488;5.462;2022-12-04T00:12:53;101544.94;;;4.93
75431;BMP280;64127;51.488;5.462;2022-12-04T00:15:25;101546.53;;;4.91
75431;BMP280;64127;51.488;5.462;2022-12-04T00:17:58;101545.06;;;4.95
75431;BMP280;64127;51.488;5.462;2022-12-04T00:20:30;101548.31;;;5.04
75431;BMP280;64127;51.488;5.462;2022-12-04T00:23:01;101547.00;;;5.09
75431;BMP280;64127;51.488;5.462;2022-12-04T00:25:33;101542.03;;;5.12
75431;BMP280;64127;51.488;5.462;2022-12-04T00:28:11;101524.63;;;4.99
75431;BMP280;64127;51.488;5.462;2022-12-04T00:30:44;101548.22;;;5.02
75431;BMP280;64127;51.488;5.462;2022-12-04T00:33:16;101513.00;;;4.83
75431;BMP280;64127;51.488;5.462;2022-12-04T00:36:00;101545.41;;;4.99
75431;BMP280;64127;51.488;5.462;2022-12-04T00:38:33;101542.69;;;4.98
75431;BMP280;64127;51.488;5.462;2022-12-04T00:41:08;101537.28;;;4.95
75431;BMP280;64127;51.488;5.462;2022-12-04T00:43:41;101541.78;;;4.97
75431;BMP280;64127;51.488;5.462;2022-12-04T00:46:14;101543.59;;;4.98
75431;BMP280;64127;51.488;5.462;2022-12-04T00:48:47;101540.09;;;4.98
75431;BMP280;64127;51.488;5.462;2022-12-04T00:51:23;101543.59;;;4.98
75431;BMP280;64127;51.488;5.462;2022-12-04T00:53:55;101545.28;;;4.98
75431;BMP280;64127;51.488;5.462;2022-12-04T00:56:28;101533.22;;;4.98
75431;BMP280;64127;51.488;5.462;2022-12-04T00:59:00;101537.50;;;4.98
75431;BMP280;64127;51.488;5.462;2022-12-04T01:01:32;101533.88;;;4.96
75431;BMP280;64127;51.488;5.462;2022-12-04T01:04:05;101541.31;;;4.91
75431;BMP280;64127;51.488;5.462;2022-12-04T01:06:37;101505.06;;;4.70
75431;BMP280;64127;51.488;5.462;2022-12-04T01:09:09;101542.47;;;4.95
75431;BMP280;64127;51.488;5.462;2022-12-04T01:11:41;101549.69;;;4.99
75431;BMP280;64127;51.488;5.462;2022-12-04T01:14:13;101548.44;;;4.94
75431;BMP280;64127;51.488;5.462;2022-12-04T01:16:46;101547.78;;;4.96
75431;BMP280;64127;51.488;5.462;2022-12-04T01:19:18;101559.16;;;4.98
75431;BMP280;64127;51.488;5.462;2022-12-04T01:21:50;101538.28;;;4.97
75431;BMP280;64127;51.488;5.462;2022-12-04T01:24:22;101537.28;;;4.95
75431;BMP280;64127;51.488;5.462;2022-12-04T01:26:54;101548.00;;;4.99
75431;BMP280;64127;51.488;5.462;2022-12-04T01:29:26;101543.47;;;4.97
75431;BMP280;64127;51.488;5.462;2022-12-04T01:31:58;101546.41;;;5.01
75431;BMP280;64127;51.488;5.462;2022-12-04T01:34:30;101551.06;;;5.05
75431;BMP280;64127;51.488;5.462;2022-12-04T01:37:02;101530.16;;;4.92
75431;BMP280;64127;51.488;5.462;2022-12-04T01:39:37;101552.88;;;5.06
75431;BMP280;64127;51.488;5.462;2022-12-04T01:42:14;101544.06;;;4.93
75431;BMP280;64127;51.488;5.462;2022-12-04T01:50:54;101544.94;;;5.05
75431;BMP280;64127;51.488;5.462;2022-12-04T01:53:30;101502.03;;;4.87
75431;BMP280;64127;51.488;5.462;2022-12-04T01:56:03;101541.78;;;5.09
75431;BMP280;64127;51.488;5.462;2022-12-04T01:58:42;101538.28;;;5.08
75431;BMP280;64127;51.488;5.462;2022-12-04T02:01:15;101539.53;;;5.02
75431;BMP280;64127;51.488;5.462;2022-12-04T02:03:48;101530.59;;;4.98
75431;BMP280;64127;51.488;5.462;2022-12-04T02:06:20;101516.28;;;4.92
75431;BMP280;64127;51.488;5.462;2022-12-04T02:08:53;101529.38;;;5.05
75431;BMP280;64127;51.488;5.462;2022-12-04T02:11:45;101536.72;;;4.99
75431;BMP280;64127;51.488;5.462;2022-12-04T02:14:53;101534.91;;;4.98
75431;BMP280;64127;51.488;5.462;2022-12-04T02:17:38;101532.44;;;4.99
75431;BMP280;64127;51.488;5.462;2022-12-04T02:27:07;101529.81;;;4.88
75431;BMP280;64127;51.488;5.462;2022-12-04T02:30:14;101534.78;;;4.85
75431;BMP280;64127;51.488;5.462;2022-12-04T02:38:21;101526.53;;;4.90
75431;BMP280;64127;51.488;5.462;2022-12-04T02:41:24;101531.63;;;4.89
75431;BMP280;64127;51.488;5.462;2022-12-04T02:46:50;101532.06;;;4.95
75431;BMP280;64127;51.488;5.462;2022-12-04T02:49:35;101528.47;;;4.93
75431;BMP280;64127;51.488;5.462;2022-12-04T02:52:14;101530.16;;;4.92
75431;BMP280;64127;51.488;5.462;2022-12-04T02:54:57;101519.19;;;4.85
75431;BMP280;64127;51.488;5.462;2022-12-04T02:57:43;101522.81;;;4.87
75431;BMP280;64127;51.488;5.462;2022-12-04T03:00:17;101515.00;;;4.87
75431;BMP280;64127;51.488;5.462;2022-12-04T03:03:07;101516.47;;;4.83
75431;BMP280;64127;51.488;5.462;2022-12-04T03:06:03;101518.75;;;4.79
75431;BMP280;64127;51.488;5.462;2022-12-04T03:08:44;101523.38;;;4.83
75431;BMP280;64127;51.488;5.462;2022-12-04T03:11:17;101518.97;;;4.82
75431;BMP280;64127;51.488;5.462;2022-12-04T03:14:18;101504.50;;;4.74
75431;BMP280;64127;51.488;5.462;2022-12-04T03:16:59;101521.56;;;4.82
75431;BMP280;64127;51.488;5.462;2022-12-04T03:19:43;101522.34;;;4.81
75431;BMP280;64127;51.488;5.462;2022-12-04T03:22:19;101502.13;;;4.77
75431;BMP280;64127;51.488;5.462;2022-12-04T03:24:55;101516.16;;;4.90
75431;BMP280;64127;51.488;5.462;2022-12-04T03:27:37;101522.25;;;4.91
75431;BMP280;64127;51.488;5.462;2022-12-04T03:30:17;101510.84;;;4.89
75431;BMP280;64127;51.488;5.462;2022-12-04T03:33:11;101484.44;;;4.71
75431;BMP280;64127;51.488;5.462;2022-12-04T03:36:09;101504.19;;;4.81
75431;BMP280;64127;51.488;5.462;2022-12-04T03:39:00;101510.50;;;4.84
75431;BMP280;64127;51.488;5.462;2022-12-04T03:42:17;101509.50;;;4.82
75431;BMP280;64127;51.488;5.462;2022-12-04T03:45:44;101496.84;;;4.75
75431;BMP280;64127;51.488;5.462;2022-12-04T03:48:33;101490.31;;;4.69
75431;BMP280;64127;51.488;5.462;2022-12-04T03:51:33;101495.59;;;4.70
75431;BMP280;64127;51.488;5.462;2022-12-04T03:54:28;101504.09;;;4.79
75431;BMP280;64127;51.488;5.462;2022-12-04T03:57:21;101494.91;;;4.73
75431;BMP280;64127;51.488;5.462;2022-12-04T04:02:44;101486.56;;;4.77
75431;BMP280;64127;51.488;5.462;2022-12-04T04:05:19;101498.91;;;4.79
75431;BMP280;64127;51.488;5.462;2022-12-04T04:08:04;101466.25;;;4.59
75431;BMP280;64127;51.488;5.462;2022-12-04T04:14:02;101503.19;;;4.79
75431;BMP280;64127;51.488;5.462;2022-12-04T04:17:05;101507.09;;;4.74
75431;BMP280;64127;51.488;5.462;2022-12-04T04:20:51;101493.91;;;4.71
75431;BMP280;64127;51.488;5.462;2022-12-04T04:23:17;101513.78;;;4.82
75431;BMP280;64127;51.488;5.462;2022-12-04T04:26:12;101475.06;;;4.62
75431;BMP280;64127;51.488;5.462;2022-12-04T04:28:45;101503.19;;;4.79
75431;BMP280;64127;51.488;5.462;2022-12-04T04:42:49;101501.72;;;4.82
75431;BMP280;64127;51.488;5.462;2022-12-04T04:48:20;101495.94;;;4.75
75431;BMP280;64127;51.488;5.462;2022-12-04T04:50:55;101472.47;;;4.62
75431;BMP280;64127;51.488;5.462;2022-12-04T04:53:44;101498.75;;;4.78
75431;BMP280;64127;51.488;5.462;2022-12-04T04:56:19;101507.69;;;4.81
75431;BMP280;64127;51.488;5.462;2022-12-04T04:58:51;101497.09;;;4.78
75431;BMP280;64127;51.488;5.462;2022-12-04T05:01:27;101513.31;;;4.87
75431;BMP280;64127;51.488;5.462;2022-12-04T05:04:01;101512.63;;;4.90
75431;BMP280;64127;51.488;5.462;2022-12-04T05:06:33;101510.53;;;4.96
75431;BMP280;64127;51.488;5.462;2022-12-04T05:09:05;101511.53;;;4.98
75431;BMP280;64127;51.488;5.462;2022-12-04T05:11:37;101500.91;;;4.95
75431;BMP280;64127;51.488;5.462;2022-12-04T05:14:09;101506.91;;;4.94
75431;BMP280;64127;51.488;5.462;2022-12-04T05:16:41;101514.69;;;4.94
75431;BMP280;64127;51.488;5.462;2022-12-04T05:19:13;101512.91;;;4.93
75431;BMP280;64127;51.488;5.462;2022-12-04T05:22:04;101512.00;;;4.92
75431;BMP280;64127;51.488;5.462;2022-12-04T05:24:35;101500.56;;;4.90
75431;BMP280;64127;51.488;5.462;2022-12-04T05:27:07;101485.09;;;4.80
75431;BMP280;64127;51.488;5.462;2022-12-04T05:29:39;101503.06;;;4.89
75431;BMP280;64127;51.488;5.462;2022-12-04T05:32:12;101505.22;;;4.83
75431;BMP280;64127;51.488;5.462;2022-12-04T05:34:47;101477.78;;;4.75
75431;BMP280;64127;51.488;5.462;2022-12-04T05:37:20;101494.72;;;4.81
75431;BMP280;64127;51.488;5.462;2022-12-04T05:39:52;101494.59;;;4.80
75431;BMP280;64127;51.488;5.462;2022-12-04T05:42:25;101503.50;;;4.83
75431;BMP280;64127;51.488;5.462;2022-12-04T05:44:57;101496.75;;;4.85
75431;BMP280;64127;51.488;5.462;2022-12-04T05:47:29;101495.72;;;4.83
75431;BMP280;64127;51.488;5.462;2022-12-04T05:50:01;101488.06;;;4.85
75431;BMP280;64127;51.488;5.462;2022-12-04T05:52:33;101478.91;;;4.78
75431;BMP280;64127;51.488;5.462;2022-12-04T05:55:05;101488.06;;;4.85
75431;BMP280;64127;51.488;5.462;2022-12-04T05:57:38;101477.00;;;4.76
75431;BMP280;64127;51.488;5.462;2022-12-04T06:00:10;101491.19;;;4.81
75431;BMP280;64127;51.488;5.462;2022-12-04T06:02:43;101485.09;;;4.80
75431;BMP280;64127;51.488;5.462;2022-12-04T06:05:15;101457.81;;;4.74
75431;BMP280;64127;51.488;5.462;2022-12-04T06:07:47;101468.63;;;4.80
75431;BMP280;64127;51.488;5.462;2022-12-04T06:10:19;101486.94;;;4.93
75431;BMP280;64127;51.488;5.462;2022-12-04T06:12:51;101486.69;;;4.90
75431;BMP280;64127;51.488;5.462;2022-12-04T06:15:28;101492.91;;;4.92
75431;BMP280;64127;51.488;5.462;2022-12-04T06:18:00;101485.81;;;4.89
75431;BMP280;64127;51.488;5.462;2022-12-04T06:20:32;101487.28;;;4.86
75431;BMP280;64127;51.488;5.462;2022-12-04T06:23:04;101489.38;;;4.80
75431;BMP280;64127;51.488;5.462;2022-12-04T06:25:36;101491.44;;;4.84
75431;BMP280;64127;51.488;5.462;2022-12-04T06:28:08;101493.47;;;4.88
75431;BMP280;64127;51.488;5.462;2022-12-04T06:30:40;101491.88;;;4.90
75431;BMP280;64127;51.488;5.462;2022-12-04T06:33:12;101476.75;;;4.84
75431;BMP280;64127;51.488;5.462;2022-12-04T06:35:44;101494.81;;;4.94
75431;BMP280;64127;51.488;5.462;2022-12-04T06:38:16;101492.34;;;4.96
75431;BMP280;64127;51.488;5.462;2022-12-04T06:40:48;101494.13;;;4.97
75431;BMP280;64127;51.488;5.462;2022-12-04T06:43:20;101499.31;;;4.97
75431;BMP280;64127;51.488;5.462;2022-12-04T06:48:39;101486.69;;;4.90
75431;BMP280;64127;51.488;5.462;2022-12-04T06:51:37;101493.91;;;4.94
75431;BMP280;64127;51.488;5.462;2022-12-04T06:54:11;101494.38;;;5.00
75431;BMP280;64127;51.488;5.462;2022-12-04T06:56:43;101506.78;;;5.04
75431;BMP280;64127;51.488;5.462;2022-12-04T06:59:16;101493.47;;;4.99
75431;BMP280;64127;51.488;5.462;2022-12-04T07:01:48;101486.69;;;4.90
75431;BMP280;64127;51.488;5.462;2022-12-04T07:04:20;101494.03;;;4.95
75431;BMP280;64127;51.488;5.462;2022-12-04T07:06:52;101516.25;;;5.03
75431;BMP280;64127;51.488;5.462;2022-12-04T07:09:24;101510.97;;;5.02
75431;BMP280;64127;51.488;5.462;2022-12-04T07:11:55;101489.06;;;4.87
75431;BMP280;64127;51.488;5.462;2022-12-04T07:14:27;101513.34;;;4.99
75431;BMP280;64127;51.488;5.462;2022-12-04T07:17:00;101512.91;;;4.93
75431;BMP280;64127;51.488;5.462;2022-12-04T07:19:32;101518.31;;;4.96
75431;BMP280;64127;51.488;5.462;2022-12-04T07:22:05;101517.84;;;5.01
75431;BMP280;64127;51.488;5.462;2022-12-04T07:24:37;101522.34;;;5.04
75431;BMP280;64127;51.488;5.462;2022-12-04T07:27:09;101531.84;;;5.03
75431;BMP280;64127;51.488;5.462;2022-12-04T07:29:41;101525.53;;;5.00
75431;BMP280;64127;51.488;5.462;2022-12-04T07:32:14;101523.94;;;5.02
75431;BMP280;64127;51.488;5.462;2022-12-04T07:34:46;101535.66;;;4.97
75431;BMP280;64127;51.488;5.462;2022-12-04T07:37:18;101524.84;;;4.91
75431;BMP280;64127;51.488;5.462;2022-12-04T07:39:51;101529.25;;;4.92
75431;BMP280;64127;51.488;5.462;2022-12-04T07:42:23;101531.84;;;4.92
75431;BMP280;64127;51.488;5.462;2022-12-04T07:44:55;101508.59;;;4.82
75431;BMP280;64127;51.488;5.462;2022-12-04T07:47:27;101527.09;;;4.98
75431;BMP280;64127;51.488;5.462;2022-12-04T07:49:59;101535.66;;;4.97
75431;BMP280;64127;51.488;5.462;2022-12-04T07:52:36;101528.00;;;4.87
75431;BMP280;64127;51.488;5.462;2022-12-04T07:55:08;101538.03;;;4.94
75431;BMP280;64127;51.488;5.462;2022-12-04T07:57:40;101535.44;;;4.94
75431;BMP280;64127;51.488;5.462;2022-12-04T08:00:14;101528.69;;;4.96
75431;BMP280;64127;51.488;5.462;2022-12-04T08:02:46;101512.19;;;4.84
75431;BMP280;64127;51.488;5.462;2022-12-04T08:05:18;101548.22;;;5.02
75431;BMP280;64127;51.488;5.462;2022-12-04T08:07:51;101547.31;;;5.02
75431;BMP280;64127;51.488;5.462;2022-12-04T08:10:23;101550.69;;;5.01
75431;BMP280;64127;51.488;5.462;2022-12-04T08:12:55;101533.53;;;4.91
75431;BMP280;64127;51.488;5.462;2022-12-04T08:15:27;101551.25;;;4.97
75431;BMP280;64127;51.488;5.462;2022-12-04T08:17:59;101543.47;;;4.97
75431;BMP280;64127;51.488;5.462;2022-12-04T08:20:31;101551.75;;;5.03
75431;BMP280;64127;51.488;5.462;2022-12-04T08:23:03;101544.28;;;4.96
75431;BMP280;64127;51.488;5.462;2022-12-04T08:25:39;101550.13;;;5.05
75431;BMP280;64127;51.488;5.462;2022-12-04T08:28:11;101539.19;;;4.97
75431;BMP280;64127;51.488;5.462;2022-12-04T08:30:43;101549.69;;;5.10
75431;BMP280;64127;51.488;5.462;2022-12-04T08:33:15;101548.13;;;5.13
75431;BMP280;64127;51.488;5.462;2022-12-04T08:35:47;101543.59;;;5.10
75431;BMP280;64127;51.488;5.462;2022-12-04T08:38:19;101547.44;;;5.15
75431;BMP280;64127;51.488;5.462;2022-12-04T08:40:50;101532.53;;;5.13
75431;BMP280;64127;51.488;5.462;2022-12-04T08:43:22;101549.69;;;5.22
75431;BMP280;64127;51.488;5.462;2022-12-04T08:46:01;101511.97;;;5.04
75431;BMP280;64127;51.488;5.462;2022-12-04T08:48:34;101524.63;;;5.11
75431;BMP280;64127;51.488;5.462;2022-12-04T08:51:13;101532.97;;;5.19
75431;BMP280;64127;51.488;5.462;2022-12-04T08:53:46;101540.91;;;5.20
75431;BMP280;64127;51.488;5.462;2022-12-04T08:56:18;101524.63;;;5.11
75431;BMP280;64127;51.488;5.462;2022-12-04T08:58:51;101537.94;;;5.16
75431;BMP280;64127;51.488;5.462;2022-12-04T09:01:24;101539.19;;;5.21
75431;BMP280;64127;51.488;5.462;2022-12-04T09:03:57;101534.78;;;5.20
75431;BMP280;64127;51.488;5.462;2022-12-04T09:06:29;101535.69;;;5.20
75431;BMP280;64127;51.488;5.462;2022-12-04T09:09:02;101540.69;;;5.17
75431;BMP280;64127;51.488;5.462;2022-12-04T09:11:34;101543.16;;;5.16
75431;BMP280;64127;51.488;5.462;2022-12-04T09:14:06;101547.22;;;5.12
75431;BMP280;64127;51.488;5.462;2022-12-04T09:16:38;101531.41;;;5.09
75431;BMP280;64127;51.488;5.462;2022-12-04T09:19:10;101539.19;;;5.09
75431;BMP280;64127;51.488;5.462;2022-12-04T09:21:42;101548.47;;;5.17
75431;BMP280;64127;51.488;5.462;2022-12-04T09:24:14;101542.47;;;5.18
75431;BMP280;64127;51.488;5.462;2022-12-04T09:26:46;101553.66;;;5.17
75431;BMP280;64127;51.488;5.462;2022-12-04T09:29:18;101544.47;;;5.10
75431;BMP280;64127;51.488;5.462;2022-12-04T09:31:50;101550.25;;;5.18
75431;BMP280;64127;51.488;5.462;2022-12-04T09:34:22;101549.56;;;5.21
75431;BMP280;64127;51.488;5.462;2022-12-04T09:36:53;101558.97;;;5.30
75431;BMP280;64127;51.488;5.462;2022-12-04T09:39:26;101544.94;;;5.28
75431;BMP280;64127;51.488;5.462;2022-12-04T09:45:16;101548.47;;;5.17
75431;BMP280;64127;51.488;5.462;2022-12-04T09:47:57;101542.25;;;5.15
75431;BMP280;64127;51.488;5.462;2022-12-04T09:50:44;101543.94;;;5.15
75431;BMP280;64127;51.488;5.462;2022-12-04T09:53:22;101544.06;;;5.16
75431;BMP280;64127;51.488;5.462;2022-12-04T09:56:11;101536.13;;;5.15
75431;BMP280;64127;51.488;5.462;2022-12-04T09:58:58;101547.66;;;5.18
75431;BMP280;64127;51.488;5.462;2022-12-04T10:04:42;101562.78;;;5.12
75431;BMP280;64127;51.488;5.462;2022-12-04T10:07:58;101557.81;;;5.15
75431;BMP280;64127;51.488;5.462;2022-12-04T10:16:53;101552.63;;;5.15
75431;BMP280;64127;51.488;5.462;2022-12-04T10:26:17;101540.09;;;4.98
75431;BMP280;64127;51.488;5.462;2022-12-04T10:29:17;101503.81;;;4.76
75431;BMP280;64127;51.488;5.462;2022-12-04T10:31:55;101548.31;;;5.04
75431;BMP280;64127;51.488;5.462;2022-12-04T10:34:30;101547.31;;;5.02
75431;BMP280;64127;51.488;5.462;2022-12-04T10:37:11;101550.25;;;4.95
75431;BMP280;64127;51.488;5.462;2022-12-04T10:40:24;101558.81;;;4.94
75431;BMP280;64127;51.488;5.462;2022-12-04T10:43:21;101569.78;;;5.01
75431;BMP280;64127;51.488;5.462;2022-12-04T10:45:55;101555.13;;;5.02
75431;BMP280;64127;51.488;5.462;2022-12-04T10:48:37;101558.28;;;5.09
75431;BMP280;64127;51.488;5.462;2022-12-04T10:51:16;101549.81;;;5.12
75431;BMP280;64127;51.488;5.462;2022-12-04T10:53:50;101553.75;;;5.07
75431;BMP280;64127;51.488;5.462;2022-12-04T10:56:24;101544.50;;;4.99
75431;BMP280;64127;51.488;5.462;2022-12-04T10:59:04;101530.59;;;4.98
75431;BMP280;64127;51.488;5.462;2022-12-04T11:01:36;101531.75;;;5.02
75431;BMP280;64127;51.488;5.462;2022-12-04T11:04:26;101527.00;;;4.96
75431;BMP280;64127;51.488;5.462;2022-12-04T11:07:15;101525.41;;;4.98
75431;BMP280;64127;51.488;5.462;2022-12-04T11:10:18;101532.53;;;5.01
75431;BMP280;64127;51.488;5.462;2022-12-04T11:12:58;101525.78;;;5.03
75431;BMP280;64127;51.488;5.462;2022-12-04T11:15:34;101526.31;;;4.99
75431;BMP280;64127;51.488;5.462;2022-12-04T11:18:28;101520.34;;;5.00
75431;BMP280;64127;51.488;5.462;2022-12-04T11:23:54;101516.38;;;5.05
75431;BMP280;64127;51.488;5.462;2022-12-04T11:26:37;101497.75;;;4.99
75431;BMP280;64127;51.488;5.462;2022-12-04T11:29:15;101495.94;;;4.98
75431;BMP280;64127;51.488;5.462;2022-12-04T11:31:54;101519.66;;;5.14
75431;BMP280;64127;51.488;5.462;2022-12-04T11:34:36;101506.91;;;5.17
75431;BMP280;64127;51.488;5.462;2022-12-04T11:37:21;101511.06;;;5.15
75431;BMP280;64127;51.488;5.462;2022-12-04T11:39:56;101503.63;;;5.08
75431;BMP280;64127;51.488;5.462;2022-12-04T11:42:30;101484.78;;;4.99
75431;BMP280;64127;51.488;5.462;2022-12-04T11:45:21;101514.22;;;5.11
75431;BMP280;64127;51.488;5.462;2022-12-04T11:48:00;101506.34;;;5.09
75431;BMP280;64127;51.488;5.462;2022-12-04T11:57:02;101495.72;;;4.95
75431;BMP280;64127;51.488;5.462;2022-12-04T12:03:26;101506.81;;;4.92
75431;BMP280;64127;51.488;5.462;2022-12-04T12:09:34;101474.16;;;4.84
75431;BMP280;64127;51.488;5.462;2022-12-04T12:15:25;101490.75;;;4.98
75431;BMP280;64127;51.488;5.462;2022-12-04T12:21:24;101482.25;;;5.35
75431;BMP280;64127;51.488;5.462;2022-12-04T12:24:38;101478.69;;;4.98
75431;BMP280;64127;51.488;5.462;2022-12-04T12:31:26;101469.03;;;5.44
75431;BMP280;64127;51.488;5.462;2022-12-04T12:37:46;101469.09;;;5.09
75431;BMP280;64127;51.488;5.462;2022-12-04T12:40:46;101467.50;;;5.11
75431;BMP280;64127;51.488;5.462;2022-12-04T12:43:30;101447.53;;;5.10
75431;BMP280;64127;51.488;5.462;2022-12-04T12:46:21;101458.22;;;5.26
75431;BMP280;64127;51.488;5.462;2022-12-04T12:52:15;101463.50;;;5.28
75431;BMP280;64127;51.488;5.462;2022-12-04T12:54:54;101461.50;;;5.24
75431;BMP280;64127;51.488;5.462;2022-12-04T12:57:37;101462.16;;;5.21
75431;BMP280;64127;51.488;5.462;2022-12-04T13:00:21;101462.50;;;5.14
75431;BMP280;64127;51.488;5.462;2022-12-04T13:06:11;101453.28;;;5.06
75431;BMP280;64127;51.488;5.462;2022-12-04T13:11:37;101466.00;;;5.15
75431;BMP280;64127;51.488;5.462;2022-12-04T13:14:12;101466.72;;;5.12
75431;BMP280;64127;51.488;5.462;2022-12-04T13:17:19;101467.03;;;5.05
75431;BMP280;64127;51.488;5.462;2022-12-04T13:19:55;101472.94;;;5.02
75431;BMP280;64127;51.488;5.462;2022-12-04T13:25:54;101466.84;;;5.02
75431;BMP280;64127;51.488;5.462;2022-12-04T13:28:53;101470.44;;;5.04
75431;BMP280;64127;51.488;5.462;2022-12-04T13:31:50;101461.63;;;5.14
75431;BMP280;64127;51.488;5.462;2022-12-04T13:41:08;101453.28;;;5.06
75431;BMP280;64127;51.488;5.462;2022-12-04T13:46:34;101447.97;;;5.16
75431;BMP280;64127;51.488;5.462;2022-12-04T13:51:48;101446.72;;;5.11
75431;BMP280;64127;51.488;5.462;2022-12-04T13:54:36;101445.72;;;5.09
75431;BMP280;64127;51.488;5.462;2022-12-04T13:59:47;101460.16;;;5.17
75431;BMP280;64127;51.488;5.462;2022-12-04T14:02:30;101458.56;;;5.19
75431;BMP280;64127;51.488;5.462;2022-12-04T14:05:09;101455.41;;;5.23
75431;BMP280;64127;51.488;5.462;2022-12-04T14:07:59;101455.19;;;5.20
75431;BMP280;64127;51.488;5.462;2022-12-04T14:10:38;101448.06;;;5.18
75431;BMP280;64127;51.488;5.462;2022-12-04T14:13:23;101435.75;;;5.15
75431;BMP280;64127;51.488;5.462;2022-12-04T14:16:08;101441.16;;;5.18
75431;BMP280;64127;51.488;5.462;2022-12-04T14:18:59;101437.44;;;5.15
75431;BMP280;64127;51.488;5.462;2022-12-04T14:21:45;101445.16;;;5.13
75431;BMP280;64127;51.488;5.462;2022-12-04T14:24:35;101442.66;;;5.15
75431;BMP280;64127;51.488;5.462;2022-12-04T14:27:31;101418.41;;;5.02
75431;BMP280;64127;51.488;5.462;2022-12-04T14:30:28;101446.28;;;5.17
75431;BMP280;64127;51.488;5.462;2022-12-04T14:33:19;101432.72;;;5.09
75431;BMP280;64127;51.488;5.462;2022-12-04T14:36:04;101442.00;;;5.17
75431;BMP280;64127;51.488;5.462;2022-12-04T14:38:38;101445.59;;;5.19
75431;BMP280;64127;51.488;5.462;2022-12-04T14:41:10;101443.31;;;5.24
75431;BMP280;64127;51.488;5.462;2022-12-04T14:43:44;101429.31;;;5.22
75431;BMP280;64127;51.488;5.462;2022-12-04T14:46:41;101446.59;;;5.21
75431;BMP280;64127;51.488;5.462;2022-12-04T14:49:33;101442.78;;;5.16
75431;BMP280;64127;51.488;5.462;2022-12-04T14:57:59;101441.72;;;5.14
75431;BMP280;64127;51.488;5.462;2022-12-04T15:00:54;101447.41;;;5.20
75431;BMP280;64127;51.488;5.462;2022-12-04T15:03:29;101456.41;;;5.25
75431;BMP280;64127;51.488;5.462;2022-12-04T15:06:12;101459.56;;;5.33
75431;BMP280;64127;51.488;5.462;2022-12-04T15:08:55;101460.69;;;5.36
75431;BMP280;64127;51.488;5.462;2022-12-04T15:11:57;101449.25;;;5.34
75431;BMP280;64127;51.488;5.462;2022-12-04T15:14:49;101464.28;;;5.38
75431;BMP280;64127;51.488;5.462;2022-12-04T15:17:21;101467.69;;;5.37
75431;BMP280;64127;51.488;5.462;2022-12-04T15:19:52;101467.91;;;5.40
75431;BMP280;64127;51.488;5.462;2022-12-04T15:22:27;101467.31;;;5.81
75431;BMP280;64127;51.488;5.462;2022-12-04T15:24:59;101464.34;;;5.51
75431;BMP280;64127;51.488;5.462;2022-12-04T15:27:33;101456.03;;;5.44
75431;BMP280;64127;51.488;5.462;2022-12-04T15:30:18;101469.56;;;5.51
75431;BMP280;64127;51.488;5.462;2022-12-04T15:32:52;101464.34;;;5.51
75431;BMP280;64127;51.488;5.462;2022-12-04T15:35:32;101435.41;;;5.34
75431;BMP280;64127;51.488;5.462;2022-12-04T15:38:04;101460.34;;;5.43
75431;BMP280;64127;51.488;5.462;2022-12-04T15:40:36;101413.28;;;5.16
75431;BMP280;64127;51.488;5.462;2022-12-04T15:43:16;101451.41;;;5.40
75431;BMP280;64127;51.488;5.462;2022-12-04T15:45:53;101456.81;;;5.43
75431;BMP280;64127;51.488;5.462;2022-12-04T15:48:29;101458.94;;;5.48
75431;BMP280;64127;51.488;5.462;2022-12-04T15:51:05;101468.34;;;5.46
75431;BMP280;64127;51.488;5.462;2022-12-04T15:53:43;101470.38;;;5.50
75431;BMP280;64127;51.488;5.462;2022-12-04T15:56:19;101478.47;;;5.55
75431;BMP280;64127;51.488;5.462;2022-12-04T15:58:59;101476.91;;;5.57
75431;BMP280;64127;51.488;5.462;2022-12-04T16:01:39;101467.63;;;5.60
75431;BMP280;64127;51.488;5.462;2022-12-04T16:04:22;101473.59;;;5.59
75431;BMP280;64127;51.488;5.462;2022-12-04T16:06:58;101474.88;;;5.53
75431;BMP280;64127;51.488;5.462;2022-12-04T16:09:30;101465.97;;;5.49
75431;BMP280;64127;51.488;5.462;2022-12-04T16:12:18;101459.09;;;5.38
75431;BMP280;64127;51.488;5.462;2022-12-04T16:14:54;101470.25;;;5.49
75431;BMP280;64127;51.488;5.462;2022-12-04T16:17:30;101473.88;;;5.51
75431;BMP280;64127;51.488;5.462;2022-12-04T16:20:04;101473.06;;;5.52
75431;BMP280;64127;51.488;5.462;2022-12-04T16:22:39;101479.38;;;5.55
75431;BMP280;64127;51.488;5.462;2022-12-04T16:25:12;101477.25;;;5.50
75431;BMP280;64127;51.488;5.462;2022-12-04T16:27:44;101467.69;;;5.37
75431;BMP280;64127;51.488;5.462;2022-12-04T16:30:16;101467.00;;;5.40
75431;BMP280;64127;51.488;5.462;2022-12-04T16:32:48;101467.69;;;5.37
75431;BMP280;64127;51.488;5.462;2022-12-04T16:35:20;101478.72;;;5.46
75431;BMP280;64127;51.488;5.462;2022-12-04T16:37:52;101488.34;;;5.47
75431;BMP280;64127;51.488;5.462;2022-12-04T16:40:24;101477.13;;;5.48
75431;BMP280;64127;51.488;5.462;2022-12-04T16:42:56;101482.34;;;5.48
75431;BMP280;64127;51.488;5.462;2022-12-04T16:45:32;101480.56;;;5.47
75431;BMP280;64127;51.488;5.462;2022-12-04T16:48:04;101481.47;;;5.48
75431;BMP280;64127;51.488;5.462;2022-12-04T16:50:36;101494.75;;;5.52
75431;BMP280;64127;51.488;5.462;2022-12-04T16:53:18;101484.34;;;5.52
75431;BMP280;64127;51.488;5.462;2022-12-04T16:55:51;101469.47;;;5.38
75431;BMP280;64127;51.488;5.462;2022-12-04T16:58:23;101492.16;;;5.52
75431;BMP280;64127;51.488;5.462;2022-12-04T17:00:56;101493.19;;;5.54
75431;BMP280;64127;51.488;5.462;2022-12-04T17:03:32;101475.34;;;5.47
75431;BMP280;64127;51.488;5.462;2022-12-04T17:06:05;101480.75;;;5.50
75431;BMP280;64127;51.488;5.462;2022-12-04T17:08:37;101483.56;;;5.53
75431;BMP280;64127;51.488;5.462;2022-12-04T17:11:14;101494.19;;;5.56
75431;BMP280;64127;51.488;5.462;2022-12-04T17:13:47;101487.16;;;5.55
75431;BMP280;64127;51.488;5.462;2022-12-04T17:16:19;101484.78;;;5.58
75431;BMP280;64127;51.488;5.462;2022-12-04T17:18:51;101493.41;;;5.57